Rutland, VT (05701)

8:06 PM EDT on March 27, 2017 (GMT -0400)
Tom's north | | Change Station

Elev 636 ft 43.61 °N, 72.97 °W | Updated 14 minutes ago

Overcast
Overcast
40.5 °F
Feels Like 40 °F
N
0.7
Wind Variable Wind from SE
Gusts 2.2 mph

Today
High -- | Low -- °F
--% Chance of Precip.
Yesterday
High -- | Low -- °F
Precip. -- in
Pressure 30.04 in
Visibility 10.0 miles
Clouds Overcast 1400 ft
Windchill 40 °F
Dew Point 34 °F
Humidity 78%
Rainfall 0.24 in
Snow Depth Not available.
6:42 AM 7:12 PM
Waning Crescent, 0% visible
METAR KRUT 272356Z AUTO 13010KT 10SM OVC014 03/01 A2997 RMK AO2 SLP171 T00330011 10039 20033 53001 $
Pressure 30.04 in
Visibility 10.0 miles
Clouds Overcast 1400 ft
Windchill 40 °F
Dew Point 34 °F
Humidity 78%
Rainfall 0.24 in
Snow Depth Not available.
6:42 AM 7:12 PM
Waning Crescent, 0% visible
METAR KRUT 272356Z AUTO 13010KT 10SM OVC014 03/01 A2997 RMK AO2 SLP171 T00330011 10039 20033 53001 $

Get Severe Weather Alerts

Thanks for signing up!

Be on the lookout for a verification email in your inbox.

You'll start receiving the daily forecast at 8 AM.

×

10-Day Weather Forecast

Almanac

Astronomy

Mar. 27, 2017 Rise Set
Actual Time
Civil Twilight
Nautical Twilight
Astronomical Twilight
Moon
Length of Visible Light
Length of Day
Tomorrow will be .
, % of the Moon is Illuminated

Today's Extremes

State Highs State Lows

Community

WunderPhotos

Upload Photos

1,962,540 photos uploaded!

WunderBlog® & News

Nearby

Air Quality

  Air Quality AQ Index Pollutant
Not available.

Snow Depth

Station Depth Elevation

Earthquake Activity

City Distance Mag. Time & Date
Minimum magnitude displayed is 2.5.

Earthquake Activity

City Distance Mag. Time & Date
Minimum magnitude displayed is 2.5.

Coastal Water Temperatures

Place Temperature

Stations

Nearby Weather Stations

Station Location Temp. Windchill Dew Point Humidity Wind Precip. Elev Updated Type
                   

Watches & Warnings

There are currently no watches in effect.